РПИ Туркменабат

Руководство

Evgeny Vygornitsky*

Куратор
Инструкторы РПИ
Evgeny Vygornitsky (Supervisor)
Vitaliy Alekseyev (Instructor)
Входит в состав
Центральная Азия

Диспетчеры РПИ

Диспетчер Рейтинг Допуски *

Аэропорты РПИ

ICAO Город Название Погода
UTAV Туркменабад Туркменабат UTAV 100800Z VRB02KT 8000 NSC M02/M09 Q1032 R31/CLRD70 NOSIG